Durant, Oklahoma
Current Conditions -  °F | °C
As of 7:55 PM on Wednesday 26 Nov 2014 (Local Time) from KDUA Reporting Station
Clear Clear  
Wind Chill: 46°   Ceiling: Unl
Heat Index: 48°   Visibility: 10mi
Dew Point: 32°   Wind: 6mph
Humidity: 54%   Direction: 310°NW
Pressure: 30.32"   Gusts: NA
Location:  33.99°N, 96.39°W
Report Text: KDUA 270155Z AUTO 31005KT 10SM CLR 09/00 A3032 RMK AO2
Loading
Personal Weather Stations






























Interactive Weather Map New forecast layout! Learn more

10-Day Weather Forecast

Advertisements
Track Severe Weather on mobile